createdAt,value
2023-04-16T00:01:13.379Z,3.38
2023-04-16T00:03:41.691Z,3.40
2023-04-16T00:06:08.507Z,3.20
2023-04-16T00:08:37.656Z,3.55
2023-04-16T00:11:08.041Z,3.30
2023-04-16T00:13:36.834Z,3.30
2023-04-16T00:16:08.732Z,2.97
2023-04-16T00:18:37.555Z,3.35
2023-04-16T00:21:06.926Z,3.55
2023-04-16T00:23:35.829Z,3.15
2023-04-16T00:26:04.754Z,3.40
2023-04-16T00:28:33.710Z,3.22
2023-04-16T00:31:03.662Z,3.47
2023-04-16T00:33:32.779Z,3.53
2023-04-16T00:36:00.862Z,3.40
2023-04-16T00:38:30.437Z,3.50
2023-04-16T00:41:00.018Z,3.10
2023-04-16T00:43:27.593Z,3.60
2023-04-16T00:45:56.712Z,3.22
2023-04-16T00:48:28.247Z,3.38
2023-04-16T00:51:00.022Z,3.30
2023-04-16T00:53:27.178Z,3.00
2023-04-16T00:55:56.149Z,3.47
2023-04-16T00:58:26.674Z,3.35
2023-04-16T01:00:56.876Z,3.43
2023-04-16T01:03:24.526Z,3.40
2023-04-16T01:05:51.335Z,3.30
2023-04-16T01:08:18.907Z,3.30
2023-04-16T01:10:45.576Z,3.40
2023-04-16T01:13:14.860Z,3.53
2023-04-16T01:15:43.821Z,3.58
2023-04-16T01:18:17.162Z,3.30
2023-04-16T01:20:44.039Z,3.15
2023-04-16T01:23:13.045Z,3.40
2023-04-16T01:25:41.917Z,3.08
2023-04-16T01:28:08.690Z,3.20
2023-04-16T01:30:40.147Z,3.22
2023-04-16T01:33:09.039Z,3.20
2023-04-16T01:35:37.931Z,3.38
2023-04-16T01:38:05.488Z,3.35
2023-04-16T01:40:34.942Z,3.40
2023-04-16T01:43:03.805Z,3.20
2023-04-16T01:45:36.373Z,3.22
2023-04-16T01:48:03.709Z,3.25
2023-04-16T01:50:35.146Z,3.83
2023-04-16T01:53:07.181Z,2.92
2023-04-16T01:55:36.536Z,3.60
2023-04-16T01:58:07.516Z,3.38
2023-04-16T02:00:34.196Z,3.42
2023-04-16T02:03:01.309Z,3.47
2023-04-16T02:05:28.252Z,3.08
2023-04-16T02:08:00.059Z,3.28
2023-04-16T02:10:29.880Z,3.83
2023-04-16T02:12:56.602Z,3.10
2023-04-16T02:15:25.321Z,3.50
2023-04-16T02:17:56.819Z,3.17
2023-04-16T02:20:23.795Z,3.28
2023-04-16T02:22:52.560Z,3.58
2023-04-16T02:25:19.230Z,3.42
2023-04-16T02:27:48.866Z,3.30
2023-04-16T02:30:21.016Z,3.40
2023-04-16T02:32:49.867Z,3.40
2023-04-16T02:35:23.764Z,3.13
2023-04-16T02:37:55.589Z,3.20
2023-04-16T02:40:24.696Z,3.20
2023-04-16T02:42:53.448Z,3.50
2023-04-16T02:45:20.940Z,3.47
2023-04-16T02:47:53.185Z,3.30
2023-04-16T02:50:19.913Z,3.38
2023-04-16T02:52:49.351Z,3.38
2023-04-16T02:55:16.200Z,3.35
2023-04-16T02:57:45.612Z,3.33
2023-04-16T03:00:13.060Z,3.28
2023-04-16T03:02:39.842Z,3.20
2023-04-16T03:05:11.846Z,3.08
2023-04-16T03:07:40.624Z,3.17
2023-04-16T03:10:10.009Z,3.10
2023-04-16T03:12:45.074Z,3.17
2023-04-16T03:15:12.021Z,3.78
2023-04-16T03:17:43.836Z,3.00
2023-04-16T03:20:14.575Z,3.10
2023-04-16T03:22:45.881Z,3.30
2023-04-16T03:25:14.770Z,3.33
2023-04-16T03:27:45.084Z,3.10
2023-04-16T03:30:14.144Z,3.22
2023-04-16T03:32:43.271Z,3.22
2023-04-16T03:35:10.443Z,3.10
2023-04-16T03:37:37.144Z,3.15
2023-04-16T03:40:05.873Z,2.80
2023-04-16T03:42:32.564Z,3.30
2023-04-16T03:44:59.543Z,2.70
2023-04-16T03:47:28.652Z,3.15
2023-04-16T03:49:55.354Z,3.58
2023-04-16T03:52:22.178Z,3.22
2023-04-16T03:54:48.765Z,3.00
2023-04-16T03:57:17.724Z,3.17
2023-04-16T03:59:46.569Z,3.10
2023-04-16T04:02:16.214Z,2.92
2023-04-16T04:04:46.064Z,3.00
2023-04-16T04:07:12.733Z,3.17
2023-04-16T04:09:42.080Z,3.05
2023-04-16T04:12:11.709Z,3.08
2023-04-16T04:14:40.087Z,3.33
2023-04-16T04:17:09.470Z,2.97
2023-04-16T04:19:36.262Z,3.20
2023-04-16T04:22:06.322Z,2.95
2023-04-16T04:24:35.945Z,2.92
2023-04-16T04:27:10.400Z,3.15
2023-04-16T04:29:39.385Z,3.22
2023-04-16T04:32:09.577Z,2.78
2023-04-16T04:34:38.690Z,3.33
2023-04-16T04:37:05.669Z,3.15
2023-04-16T04:39:34.508Z,3.20
2023-04-16T04:42:03.844Z,3.15
2023-04-16T04:44:30.757Z,2.95
2023-04-16T04:46:59.662Z,3.00
2023-04-16T04:49:31.009Z,3.10
2023-04-16T04:52:01.428Z,3.08
2023-04-16T04:54:31.452Z,3.03
2023-04-16T04:56:58.299Z,2.90
2023-04-16T04:59:27.312Z,3.10
2023-04-16T05:01:56.573Z,2.95
2023-04-16T05:04:23.325Z,2.85
2023-04-16T05:06:50.023Z,2.90
2023-04-16T05:09:19.006Z,3.10
2023-04-16T05:11:50.560Z,3.10
2023-04-16T05:14:21.991Z,2.80
2023-04-16T05:16:48.861Z,3.15
2023-04-16T05:19:18.815Z,2.63
2023-04-16T05:21:47.640Z,3.13
2023-04-16T05:24:15.045Z,2.97
2023-04-16T05:26:41.954Z,2.80
2023-04-16T05:29:11.632Z,3.00
2023-04-16T05:31:41.098Z,2.80
2023-04-16T05:34:07.722Z,3.13
2023-04-16T05:36:39.716Z,3.10
2023-04-16T05:39:11.906Z,3.22
2023-04-16T05:41:40.967Z,2.90
2023-04-16T05:44:07.800Z,2.92
2023-04-16T05:46:36.885Z,2.80
2023-04-16T05:49:09.045Z,3.10
2023-04-16T05:51:38.323Z,3.00
2023-04-16T05:54:10.179Z,3.10
2023-04-16T05:56:36.840Z,3.15
2023-04-16T05:59:03.582Z,2.90
2023-04-16T06:01:33.413Z,3.15
2023-04-16T06:04:03.449Z,2.95
2023-04-16T06:06:32.940Z,2.83
2023-04-16T06:08:59.655Z,2.85
2023-04-16T06:11:28.434Z,3.35
2023-04-16T06:13:58.176Z,2.90
2023-04-16T06:16:25.030Z,2.97
2023-04-16T06:18:57.033Z,3.10
2023-04-16T06:21:26.761Z,3.00
2023-04-16T06:23:57.285Z,3.20
2023-04-16T06:26:24.011Z,2.95
2023-04-16T06:28:53.779Z,2.90
2023-04-16T06:31:20.750Z,3.33
2023-04-16T06:33:50.248Z,2.72
2023-04-16T06:36:19.659Z,3.25
2023-04-16T06:38:46.626Z,3.22
2023-04-16T06:41:16.506Z,3.13
2023-04-16T06:43:45.317Z,2.90
2023-04-16T06:46:14.423Z,3.13
2023-04-16T06:48:41.245Z,3.45
2023-04-16T06:51:07.931Z,3.15
2023-04-16T06:53:37.892Z,3.30
2023-04-16T06:56:07.254Z,3.40
2023-04-16T06:58:34.087Z,3.10
2023-04-16T07:01:02.970Z,3.05
2023-04-16T07:03:34.905Z,3.40
2023-04-16T07:06:03.925Z,3.55
2023-04-16T07:08:30.589Z,3.22
2023-04-16T07:10:59.394Z,3.17
2023-04-16T07:13:28.118Z,3.50
2023-04-16T07:15:57.168Z,3.40
2023-04-16T07:18:26.571Z,3.42
2023-04-16T07:20:53.226Z,3.28
2023-04-16T07:23:26.122Z,3.22
2023-04-16T07:25:56.418Z,3.53
2023-04-16T07:28:25.232Z,2.95
2023-04-16T07:30:54.632Z,3.63
2023-04-16T07:33:23.588Z,3.30
2023-04-16T07:35:52.868Z,3.30
2023-04-16T07:38:21.702Z,3.53
2023-04-16T07:40:50.577Z,3.50
2023-04-16T07:43:17.309Z,3.28
2023-04-16T07:45:46.321Z,3.30
2023-04-16T07:48:13.059Z,3.50
2023-04-16T07:50:41.873Z,3.50
2023-04-16T07:53:08.554Z,3.35
2023-04-16T07:55:35.573Z,3.33
2023-04-16T07:58:06.472Z,3.50
2023-04-16T08:00:33.161Z,3.42
2023-04-16T08:03:02.740Z,3.20
2023-04-16T08:05:29.690Z,3.20
2023-04-16T08:07:58.758Z,3.45
2023-04-16T08:10:27.565Z,3.83
2023-04-16T08:12:54.256Z,3.60
2023-04-16T08:15:21.114Z,3.40
2023-04-16T08:17:52.545Z,3.33
2023-04-16T08:20:21.585Z,3.42
2023-04-16T08:22:51.346Z,3.58
2023-04-16T08:25:17.995Z,3.13
2023-04-16T08:27:46.880Z,3.53
2023-04-16T08:30:13.538Z,3.40
2023-04-16T08:32:40.234Z,3.30
2023-04-16T08:35:07.159Z,3.38
2023-04-16T08:37:33.918Z,3.58
2023-04-16T08:40:03.630Z,3.45
2023-04-16T08:42:37.042Z,3.50
2023-04-16T08:45:15.947Z,3.38
2023-04-16T08:47:43.386Z,3.25
2023-04-16T08:50:11.335Z,3.10
2023-04-16T08:52:38.437Z,3.20
2023-04-16T08:55:10.008Z,3.35
2023-04-16T08:57:42.128Z,3.13
2023-04-16T09:00:09.881Z,3.00
2023-04-16T09:02:42.165Z,3.30
2023-04-16T09:05:09.182Z,3.30
2023-04-16T09:07:35.841Z,3.30
2023-04-16T09:10:05.454Z,3.35
2023-04-16T09:12:32.152Z,3.22
2023-04-16T09:15:01.209Z,3.17
2023-04-16T09:17:33.372Z,2.97
2023-04-16T09:20:02.325Z,3.30
2023-04-16T09:22:31.901Z,3.05
2023-04-16T09:24:58.640Z,3.70
2023-04-16T09:27:28.145Z,3.42
2023-04-16T09:29:57.814Z,3.08
2023-04-16T09:32:28.471Z,3.30
2023-04-16T09:34:59.508Z,3.10
2023-04-16T09:37:27.141Z,3.00
2023-04-16T09:39:58.692Z,3.10
2023-04-16T09:42:36.251Z,3.00
2023-04-16T09:45:05.113Z,2.90
2023-04-16T09:47:45.914Z,3.30
2023-04-16T09:50:18.272Z,3.25
2023-04-16T09:52:48.368Z,3.10
2023-04-16T09:55:15.457Z,3.30
2023-04-16T09:57:46.768Z,2.90
2023-04-16T10:00:16.127Z,2.95
2023-04-16T10:02:43.109Z,3.28
2023-04-16T10:05:16.555Z,2.85
2023-04-16T10:07:45.828Z,2.90
2023-04-16T10:10:14.691Z,3.20
2023-04-16T10:12:41.390Z,2.90
2023-04-16T10:15:08.383Z,3.00
2023-04-16T10:17:40.485Z,3.03
2023-04-16T10:20:07.524Z,2.80
2023-04-16T10:22:36.388Z,2.80
2023-04-16T10:25:03.470Z,3.10
2023-04-16T10:27:30.364Z,3.10
2023-04-16T10:29:57.163Z,2.60
2023-04-16T10:32:28.519Z,2.90
2023-04-16T10:34:55.780Z,2.70
2023-04-16T10:37:33.148Z,2.95
2023-04-16T10:40:02.222Z,2.92
2023-04-16T10:42:33.618Z,2.92
2023-04-16T10:45:02.486Z,2.72
2023-04-16T10:47:31.334Z,2.83
2023-04-16T10:49:58.201Z,3.10
2023-04-16T10:52:27.001Z,2.80
2023-04-16T10:54:55.682Z,3.00
2023-04-16T10:57:24.519Z,2.90
2023-04-16T10:59:51.213Z,2.80
2023-04-16T11:02:20.457Z,3.05
2023-04-16T11:04:48.461Z,3.00
2023-04-16T11:07:22.690Z,2.78
2023-04-16T11:09:55.255Z,3.00
2023-04-16T11:12:47.243Z,2.97
2023-04-16T11:15:19.670Z,2.95
2023-04-16T11:17:47.614Z,2.83
2023-04-16T11:20:26.919Z,2.80
2023-04-16T11:22:57.312Z,3.13
2023-04-16T11:25:25.365Z,2.80
2023-04-16T11:27:54.821Z,2.72
2023-04-16T11:30:37.984Z,2.88
2023-04-16T11:33:08.455Z,3.00
2023-04-16T11:35:39.281Z,3.17
2023-04-16T11:38:08.844Z,3.05
2023-04-16T11:40:37.833Z,3.15
2023-04-16T11:43:15.124Z,2.70
2023-04-16T11:46:05.340Z,2.38
2023-04-16T11:48:58.374Z,2.88
2023-04-16T11:51:25.009Z,2.97
2023-04-16T11:53:54.864Z,2.90
2023-04-16T11:56:28.677Z,2.80
2023-04-16T11:59:12.249Z,2.90
2023-04-16T12:01:42.602Z,2.67
2023-04-16T12:04:09.691Z,2.97
2023-04-16T12:06:36.717Z,3.10
2023-04-16T12:09:22.626Z,2.58
2023-04-16T12:11:49.304Z,2.90
2023-04-16T12:14:16.087Z,2.90
2023-04-16T12:16:44.943Z,3.08
2023-04-16T12:19:16.946Z,2.90
2023-04-16T12:21:44.902Z,2.80
2023-04-16T12:24:15.420Z,2.70
2023-04-16T12:26:46.711Z,2.63
2023-04-16T12:29:21.088Z,2.70
2023-04-16T12:31:48.738Z,2.58
2023-04-16T12:34:15.717Z,2.50
2023-04-16T12:36:42.739Z,2.55
2023-04-16T12:39:17.735Z,2.90
2023-04-16T12:41:46.517Z,2.97
2023-04-16T12:44:16.693Z,2.60
2023-04-16T12:46:46.626Z,2.63
2023-04-16T12:49:16.702Z,2.58
2023-04-16T12:51:45.733Z,3.00
2023-04-16T12:54:15.050Z,2.90
2023-04-16T12:56:41.843Z,2.50
2023-04-16T12:59:11.516Z,2.70
2023-04-16T13:01:38.412Z,2.88
2023-04-16T13:04:07.747Z,2.65
2023-04-16T13:06:36.789Z,2.70
2023-04-16T13:09:04.928Z,3.03
2023-04-16T13:11:34.467Z,3.15
2023-04-16T13:14:01.218Z,2.78
2023-04-16T13:16:28.075Z,2.80
2023-04-16T13:18:54.944Z,2.80
2023-04-16T13:21:23.751Z,2.83
2023-04-16T13:23:50.610Z,2.72
2023-04-16T13:26:19.499Z,2.45
2023-04-16T13:28:46.467Z,2.58
2023-04-16T13:31:13.888Z,2.75
2023-04-16T13:33:42.877Z,2.45
2023-04-16T13:36:09.489Z,2.72
2023-04-16T13:38:36.437Z,2.80
2023-04-16T13:41:03.339Z,2.70
2023-04-16T13:43:30.048Z,2.90
2023-04-16T13:45:58.970Z,2.58
2023-04-16T13:48:27.903Z,2.50
2023-04-16T13:50:56.750Z,2.65
2023-04-16T13:53:23.333Z,2.75
2023-04-16T13:55:52.179Z,2.92
2023-04-16T13:58:18.866Z,3.00
2023-04-16T14:00:45.669Z,2.70
2023-04-16T14:03:12.419Z,2.60
2023-04-16T14:05:41.722Z,2.35
2023-04-16T14:08:13.163Z,3.10
2023-04-16T14:10:40.261Z,2.72
2023-04-16T14:13:06.947Z,2.40
2023-04-16T14:15:33.590Z,2.65
2023-04-16T14:18:03.992Z,2.75
2023-04-16T14:20:30.727Z,2.73
2023-04-16T14:22:57.815Z,2.70
2023-04-16T14:25:24.451Z,2.80
2023-04-16T14:27:51.355Z,2.80
2023-04-16T14:30:18.201Z,2.42
2023-04-16T14:32:47.288Z,2.78
2023-04-16T14:35:16.099Z,3.05
2023-04-16T14:37:43.726Z,2.45
2023-04-16T14:40:12.998Z,2.60
2023-04-16T14:42:39.812Z,2.50
2023-04-16T14:45:07.154Z,2.42
2023-04-16T14:47:37.846Z,2.70
2023-04-16T14:50:05.534Z,2.70
2023-04-16T14:52:35.101Z,2.65
2023-04-16T14:55:01.794Z,3.30
2023-04-16T14:57:31.628Z,2.33
2023-04-16T15:00:01.296Z,2.85
2023-04-16T15:02:31.344Z,2.67
2023-04-16T15:05:00.296Z,2.47
2023-04-16T15:07:27.046Z,2.50
2023-04-16T15:09:56.035Z,2.45
2023-04-16T15:12:24.902Z,2.50
2023-04-16T15:14:53.819Z,2.33
2023-04-16T15:17:23.212Z,2.75
2023-04-16T15:19:52.150Z,2.63
2023-04-16T15:22:20.982Z,2.85
2023-04-16T15:24:49.789Z,2.50
2023-04-16T15:27:19.917Z,2.78
2023-04-16T15:29:49.577Z,2.60
2023-04-16T15:32:18.723Z,2.47
2023-04-16T15:34:47.803Z,2.40
2023-04-16T15:37:15.070Z,2.50
2023-04-16T15:39:47.978Z,2.53
2023-04-16T15:42:17.019Z,2.60
2023-04-16T15:44:45.938Z,2.40
2023-04-16T15:47:14.729Z,3.05
2023-04-16T15:49:42.056Z,2.40
2023-04-16T15:52:12.029Z,2.40
2023-04-16T15:54:38.766Z,2.65
2023-04-16T15:57:07.509Z,2.60
2023-04-16T15:59:36.287Z,2.20
2023-04-16T16:02:05.119Z,2.53
2023-04-16T16:04:34.189Z,2.60
2023-04-16T16:07:03.107Z,2.55
2023-04-16T16:09:32.014Z,2.65
2023-04-16T16:11:59.803Z,2.85
2023-04-16T16:14:28.740Z,2.40
2023-04-16T16:16:57.806Z,2.60
2023-04-16T16:19:27.213Z,2.60
2023-04-16T16:21:53.872Z,2.58
2023-04-16T16:24:22.673Z,2.40
2023-04-16T16:26:49.506Z,2.58
2023-04-16T16:29:16.141Z,2.70
2023-04-16T16:31:42.781Z,2.78
2023-04-16T16:34:19.906Z,2.90
2023-04-16T16:36:50.703Z,2.60
2023-04-16T16:39:24.378Z,2.70
2023-04-16T16:41:53.687Z,2.72
2023-04-16T16:44:23.029Z,2.40
2023-04-16T16:46:55.073Z,2.38
2023-04-16T16:49:26.412Z,2.55
2023-04-16T16:51:58.103Z,2.85
2023-04-16T16:54:26.934Z,2.63
2023-04-16T16:56:53.561Z,2.80
2023-04-16T16:59:23.346Z,2.55
2023-04-16T17:01:51.383Z,2.40
2023-04-16T17:04:22.992Z,2.55
2023-04-16T17:06:52.053Z,2.42
2023-04-16T17:09:21.415Z,2.60
2023-04-16T17:11:50.210Z,2.70
2023-04-16T17:14:19.187Z,2.85
2023-04-16T17:16:49.908Z,2.78
2023-04-16T17:19:21.522Z,2.53
2023-04-16T17:21:53.781Z,2.60
2023-04-16T17:24:22.710Z,2.70
2023-04-16T17:26:49.404Z,2.53
2023-04-16T17:29:18.214Z,2.75
2023-04-16T17:31:49.852Z,2.67
2023-04-16T17:34:19.525Z,2.30
2023-04-16T17:36:50.871Z,2.50
2023-04-16T17:39:17.881Z,2.60
2023-04-16T17:41:44.710Z,2.90
2023-04-16T17:44:11.944Z,2.50
2023-04-16T17:46:39.396Z,2.63
2023-04-16T17:49:08.422Z,2.80
2023-04-16T17:51:35.046Z,2.67
2023-04-16T17:54:03.968Z,2.38
2023-04-16T17:56:32.782Z,2.72
2023-04-16T17:59:04.765Z,2.78
2023-04-16T18:01:36.626Z,3.17
2023-04-16T18:04:03.409Z,2.67
2023-04-16T18:06:30.941Z,2.80
2023-04-16T18:08:57.773Z,2.45
2023-04-16T18:11:26.566Z,2.60
2023-04-16T18:13:53.977Z,2.35
2023-04-16T18:16:23.105Z,2.50
2023-04-16T18:18:52.137Z,2.70
2023-04-16T18:21:25.048Z,2.50
2023-04-16T18:23:51.675Z,2.88
2023-04-16T18:26:25.251Z,2.70
2023-04-16T18:28:54.215Z,2.38
2023-04-16T18:31:24.054Z,2.50
2023-04-16T18:33:57.476Z,2.60
2023-04-16T18:36:27.686Z,2.47
2023-04-16T18:39:02.145Z,2.55
2023-04-16T18:41:31.898Z,2.70
2023-04-16T18:43:58.696Z,2.65
2023-04-16T18:46:27.770Z,2.65
2023-04-16T18:48:58.312Z,2.50
2023-04-16T18:51:27.727Z,2.70
2023-04-16T18:53:54.393Z,2.50
2023-04-16T18:56:21.135Z,2.80
2023-04-16T18:58:48.034Z,2.75
2023-04-16T19:01:14.748Z,2.40
2023-04-16T19:03:43.617Z,2.80
2023-04-16T19:06:10.389Z,2.70
2023-04-16T19:08:39.516Z,2.47
2023-04-16T19:11:09.152Z,2.40
2023-04-16T19:13:40.425Z,2.85
2023-04-16T19:16:11.188Z,2.50
2023-04-16T19:18:40.840Z,2.60
2023-04-16T19:21:12.226Z,2.35
2023-04-16T19:23:41.515Z,2.63
2023-04-16T19:26:10.406Z,2.55
2023-04-16T19:28:38.698Z,2.47
2023-04-16T19:31:05.455Z,2.95
2023-04-16T19:33:34.589Z,2.33
2023-04-16T19:36:03.588Z,2.88
2023-04-16T19:38:31.923Z,2.70
2023-04-16T19:41:00.981Z,2.33
2023-04-16T19:43:30.891Z,2.42
2023-04-16T19:45:57.796Z,2.90
2023-04-16T19:48:26.840Z,2.78
2023-04-16T19:50:55.729Z,2.70
2023-04-16T19:53:25.228Z,2.63
2023-04-16T19:55:51.866Z,2.40
2023-04-16T19:58:18.528Z,2.83
2023-04-16T20:00:47.356Z,2.90
2023-04-16T20:03:16.351Z,2.80
2023-04-16T20:05:43.052Z,2.90
2023-04-16T20:08:11.917Z,2.50
2023-04-16T20:10:41.701Z,2.75
2023-04-16T20:13:12.038Z,2.97
2023-04-16T20:15:41.729Z,2.23
2023-04-16T20:18:13.022Z,2.80
2023-04-16T20:20:42.115Z,2.75
2023-04-16T20:23:08.775Z,2.70
2023-04-16T20:25:35.459Z,3.22
2023-04-16T20:28:04.201Z,2.35
2023-04-16T20:30:38.390Z,2.55
2023-04-16T20:33:08.422Z,2.40
2023-04-16T20:35:37.882Z,2.67
2023-04-16T20:38:06.768Z,2.70
2023-04-16T20:40:35.603Z,2.42
2023-04-16T20:43:02.325Z,2.83
2023-04-16T20:45:37.914Z,2.50
2023-04-16T20:48:10.336Z,2.78
2023-04-16T20:50:39.233Z,2.70
2023-04-16T20:53:08.181Z,2.72
2023-04-16T20:55:34.894Z,2.60
2023-04-16T20:58:03.747Z,2.80
2023-04-16T21:00:33.020Z,2.85
2023-04-16T21:03:04.490Z,2.70
2023-04-16T21:05:33.447Z,2.50
2023-04-16T21:08:03.221Z,2.83
2023-04-16T21:10:30.006Z,2.92
2023-04-16T21:12:56.876Z,2.50
2023-04-16T21:15:23.523Z,2.70
2023-04-16T21:17:50.205Z,2.83
2023-04-16T21:20:21.571Z,2.72
2023-04-16T21:22:53.440Z,2.60
2023-04-16T21:25:22.244Z,2.67
2023-04-16T21:27:51.134Z,3.20
2023-04-16T21:30:18.068Z,3.00
2023-04-16T21:32:46.867Z,2.70
2023-04-16T21:35:16.742Z,2.80
2023-04-16T21:37:43.332Z,2.80
2023-04-16T21:40:10.353Z,3.00
2023-04-16T21:42:40.124Z,2.58
2023-04-16T21:45:14.763Z,2.72
2023-04-16T21:47:41.484Z,2.70
2023-04-16T21:50:11.332Z,2.80
2023-04-16T21:52:46.624Z,2.65
2023-04-16T21:55:16.548Z,2.80
2023-04-16T21:57:45.363Z,2.95
2023-04-16T22:00:15.362Z,2.97
2023-04-16T22:02:42.919Z,2.88
2023-04-16T22:05:10.800Z,2.63
2023-04-16T22:07:37.772Z,2.92
2023-04-16T22:10:04.922Z,3.00
2023-04-16T22:12:37.758Z,2.72
2023-04-16T22:15:05.808Z,2.70
2023-04-16T22:17:37.276Z,2.95
2023-04-16T22:20:08.925Z,2.75
2023-04-16T22:22:37.694Z,2.80
2023-04-16T22:25:07.150Z,3.00
2023-04-16T22:27:37.098Z,2.90
2023-04-16T22:30:04.159Z,2.90
2023-04-16T22:32:31.010Z,3.10
2023-04-16T22:34:57.795Z,2.75
2023-04-16T22:37:26.603Z,2.80
2023-04-16T22:39:55.390Z,2.80
2023-04-16T22:42:24.341Z,3.00
2023-04-16T22:44:51.067Z,3.10
2023-04-16T22:47:19.941Z,3.13
2023-04-16T22:49:47.674Z,2.75
2023-04-16T22:52:16.503Z,3.10
2023-04-16T22:54:43.102Z,2.67
2023-04-16T22:57:12.262Z,2.80
2023-04-16T22:59:41.092Z,3.40
2023-04-16T23:02:07.718Z,2.85
2023-04-16T23:04:34.657Z,3.28
2023-04-16T23:07:01.466Z,2.90
2023-04-16T23:09:28.136Z,2.72
2023-04-16T23:11:57.493Z,3.13
2023-04-16T23:14:26.356Z,3.10
2023-04-16T23:16:55.483Z,2.88
2023-04-16T23:19:26.797Z,2.92
2023-04-16T23:21:53.552Z,3.05
2023-04-16T23:24:20.321Z,3.30
2023-04-16T23:26:49.334Z,3.20
2023-04-16T23:29:16.002Z,3.00
2023-04-16T23:31:42.891Z,3.10
2023-04-16T23:34:09.517Z,3.00
2023-04-16T23:36:36.563Z,2.88
2023-04-16T23:39:05.408Z,3.05
2023-04-16T23:41:37.308Z,2.90
2023-04-16T23:44:06.130Z,2.78
2023-04-16T23:46:32.934Z,3.20
2023-04-16T23:48:59.877Z,3.08
2023-04-16T23:51:26.730Z,3.10
2023-04-16T23:53:55.874Z,3.05
2023-04-16T23:56:22.622Z,3.05
2023-04-16T23:58:51.588Z,3.13
